createdAt,value
2023-05-04T00:00:30.839Z,8.83
2023-05-04T00:01:30.895Z,8.85
2023-05-04T00:02:30.845Z,8.82
2023-05-04T00:03:30.978Z,8.80
2023-05-04T00:04:30.855Z,8.76
2023-05-04T00:05:30.844Z,8.67
2023-05-04T00:06:30.781Z,8.68
2023-05-04T00:07:30.794Z,8.68
2023-05-04T00:08:30.764Z,8.64
2023-05-04T00:09:30.767Z,8.57
2023-05-04T00:10:30.778Z,8.52
2023-05-04T00:11:30.749Z,8.52
2023-05-04T00:12:30.811Z,8.55
2023-05-04T00:13:30.760Z,8.58
2023-05-04T00:14:30.707Z,8.60
2023-05-04T00:15:30.736Z,8.57
2023-05-04T00:16:30.741Z,8.58
2023-05-04T00:17:30.699Z,8.61
2023-05-04T00:18:30.657Z,8.60
2023-05-04T00:19:30.691Z,8.60
2023-05-04T00:20:30.634Z,8.57
2023-05-04T00:21:30.643Z,8.57
2023-05-04T00:22:30.646Z,8.54
2023-05-04T00:23:30.636Z,8.55
2023-05-04T00:24:30.589Z,8.54
2023-05-04T00:25:30.610Z,8.46
2023-05-04T00:26:30.625Z,8.45
2023-05-04T00:27:30.588Z,8.45
2023-05-04T00:28:30.580Z,8.39
2023-05-04T00:29:30.565Z,8.36
2023-05-04T00:30:30.559Z,8.34
2023-05-04T00:31:30.609Z,8.31
2023-05-04T00:32:30.532Z,8.28
2023-05-04T00:33:30.520Z,8.28
2023-05-04T00:34:30.491Z,8.28
2023-05-04T00:35:30.534Z,8.28
2023-05-04T00:36:30.460Z,8.28
2023-05-04T00:37:30.501Z,8.29
2023-05-04T00:38:30.450Z,8.29
2023-05-04T00:39:30.452Z,8.29
2023-05-04T00:40:30.450Z,8.29
2023-05-04T00:41:30.466Z,8.29
2023-05-04T00:42:30.394Z,8.29
2023-05-04T00:43:30.417Z,8.27
2023-05-04T00:44:30.387Z,8.29
2023-05-04T00:45:30.402Z,8.28
2023-05-04T00:46:30.456Z,8.29
2023-05-04T00:47:30.424Z,8.28
2023-05-04T00:48:30.338Z,8.27
2023-05-04T00:49:30.360Z,8.27
2023-05-04T00:50:30.314Z,8.21
2023-05-04T00:51:30.359Z,8.21
2023-05-04T00:52:30.298Z,8.21
2023-05-04T00:53:30.338Z,8.21
2023-05-04T00:54:30.288Z,8.22
2023-05-04T00:55:30.300Z,8.22
2023-05-04T00:56:30.300Z,8.24
2023-05-04T00:57:30.266Z,8.24
2023-05-04T00:58:30.238Z,8.22
2023-05-04T00:59:30.250Z,8.25
2023-05-04T01:00:30.226Z,8.25
2023-05-04T01:01:30.414Z,8.25
2023-05-04T01:02:30.309Z,8.22
2023-05-04T01:03:30.312Z,8.24
2023-05-04T01:04:30.178Z,8.21
2023-05-04T01:05:30.172Z,8.22
2023-05-04T01:06:30.203Z,8.21
2023-05-04T01:07:30.160Z,8.24
2023-05-04T01:08:30.177Z,8.21
2023-05-04T01:09:30.140Z,8.24
2023-05-04T01:10:30.112Z,8.24
2023-05-04T01:11:30.118Z,8.24
2023-05-04T01:12:30.179Z,8.21
2023-05-04T01:13:30.142Z,8.20
2023-05-04T01:14:30.067Z,8.20
2023-05-04T01:15:30.092Z,8.21
2023-05-04T01:16:35.330Z,8.22
2023-05-04T01:17:30.129Z,8.24
2023-05-04T01:18:30.058Z,8.28
2023-05-04T01:19:30.057Z,8.25
2023-05-04T01:20:30.009Z,8.27
2023-05-04T01:21:30.018Z,8.27
2023-05-04T01:22:29.975Z,8.22
2023-05-04T01:23:29.983Z,8.13
2023-05-04T01:24:29.970Z,8.13
2023-05-04T01:25:29.971Z,8.09
2023-05-04T01:26:30.896Z,8.06
2023-05-04T01:27:29.949Z,8.03
2023-05-04T01:28:29.930Z,8.03
2023-05-04T01:29:29.952Z,8.04
2023-05-04T01:30:29.920Z,8.07
2023-05-04T01:31:29.998Z,8.07
2023-05-04T01:32:29.932Z,8.09
2023-05-04T01:33:29.909Z,8.12
2023-05-04T01:34:29.853Z,8.12
2023-05-04T01:35:29.861Z,8.10
2023-05-04T01:36:29.831Z,8.09
2023-05-04T01:37:29.844Z,8.04
2023-05-04T01:38:29.850Z,8.06
2023-05-04T01:39:29.859Z,8.06
2023-05-04T01:40:29.791Z,8.02
2023-05-04T01:41:29.796Z,7.99
2023-05-04T01:42:29.769Z,7.88
2023-05-04T01:43:29.778Z,7.88
2023-05-04T01:44:29.789Z,7.88
2023-05-04T01:45:29.757Z,7.88
2023-05-04T01:46:29.774Z,7.88
2023-05-04T01:47:29.807Z,7.88
2023-05-04T01:48:29.719Z,7.88
2023-05-04T01:49:29.731Z,7.89
2023-05-04T01:50:29.680Z,7.89
2023-05-04T01:51:29.697Z,7.81
2023-05-04T01:52:29.676Z,7.77
2023-05-04T01:53:29.660Z,7.74
2023-05-04T01:54:29.635Z,7.76
2023-05-04T01:55:29.674Z,7.71
2023-05-04T01:56:29.622Z,7.74
2023-05-04T01:57:29.661Z,7.74
2023-05-04T01:58:29.588Z,7.66
2023-05-04T01:59:29.597Z,7.67
2023-05-04T02:00:29.606Z,7.69
2023-05-04T02:01:29.631Z,7.66
2023-05-04T02:02:29.587Z,7.60
2023-05-04T02:03:29.651Z,7.52
2023-05-04T02:04:29.526Z,7.50
2023-05-04T02:05:29.542Z,7.51
2023-05-04T02:06:29.528Z,7.55
2023-05-04T02:07:29.521Z,7.57
2023-05-04T02:08:29.533Z,7.63
2023-05-04T02:09:29.521Z,7.69
2023-05-04T02:10:29.462Z,7.70
2023-05-04T02:11:29.475Z,7.69
2023-05-04T02:12:29.474Z,7.62
2023-05-04T02:13:29.456Z,7.50
2023-05-04T02:14:29.455Z,7.45
2023-05-04T02:15:29.431Z,7.42
2023-05-04T02:16:29.461Z,7.44
2023-05-04T02:17:29.414Z,7.44
2023-05-04T02:18:29.402Z,7.41
2023-05-04T02:19:29.416Z,7.37
2023-05-04T02:20:29.406Z,7.34
2023-05-04T02:21:29.395Z,7.29
2023-05-04T02:22:29.336Z,7.29
2023-05-04T02:23:29.355Z,7.26
2023-05-04T02:24:29.320Z,7.14
2023-05-04T02:25:29.377Z,7.09
2023-05-04T02:26:29.323Z,6.99
2023-05-04T02:27:29.312Z,6.90
2023-05-04T02:28:29.281Z,6.82
2023-05-04T02:29:29.290Z,6.81
2023-05-04T02:30:29.250Z,6.79
2023-05-04T02:31:29.344Z,6.83
2023-05-04T02:32:29.260Z,6.87
2023-05-04T02:33:29.228Z,6.90
2023-05-04T02:34:29.242Z,6.94
2023-05-04T02:35:29.201Z,6.99
2023-05-04T02:36:29.248Z,6.99
2023-05-04T02:37:29.182Z,7.04
2023-05-04T02:38:29.241Z,7.07
2023-05-04T02:39:29.168Z,7.07
2023-05-04T02:40:29.175Z,7.09
2023-05-04T02:41:29.144Z,7.11
2023-05-04T02:42:29.177Z,6.99
2023-05-04T02:43:29.145Z,6.91
2023-05-04T02:44:29.152Z,6.83
2023-05-04T02:45:29.161Z,6.81
2023-05-04T02:46:29.119Z,6.71
2023-05-04T02:47:29.194Z,6.68
2023-05-04T02:48:29.111Z,6.65
2023-05-04T02:49:29.064Z,6.63
2023-05-04T02:50:29.094Z,6.58
2023-05-04T02:51:29.053Z,6.55
2023-05-04T02:52:29.054Z,6.55
2023-05-04T02:53:29.031Z,6.57
2023-05-04T02:54:29.064Z,6.58
2023-05-04T02:55:35.804Z,6.64
2023-05-04T02:56:29.029Z,6.68
2023-05-04T02:57:28.966Z,6.73
2023-05-04T02:58:29.017Z,6.75
2023-05-04T02:59:28.972Z,6.73
2023-05-04T03:00:50.071Z,6.73
2023-05-04T03:01:28.973Z,6.73
2023-05-04T03:02:28.959Z,6.68
2023-05-04T03:03:28.933Z,6.68
2023-05-04T03:04:28.972Z,6.58
2023-05-04T03:05:28.949Z,6.54
2023-05-04T03:06:28.879Z,6.53
2023-05-04T03:07:28.914Z,6.51
2023-05-04T03:08:28.864Z,6.50
2023-05-04T03:09:35.842Z,6.50
2023-05-04T03:10:28.839Z,6.45
2023-05-04T03:11:28.851Z,6.38
2023-05-04T03:12:28.861Z,6.40
2023-05-04T03:13:28.840Z,6.40
2023-05-04T03:14:28.793Z,6.42
2023-05-04T03:15:28.805Z,6.42
2023-05-04T03:16:28.806Z,6.39
2023-05-04T03:17:28.816Z,6.39
2023-05-04T03:18:59.429Z,6.30
2023-05-04T03:19:28.762Z,6.24
2023-05-04T03:20:28.716Z,6.16
2023-05-04T03:21:28.728Z,6.14
2023-05-04T03:22:28.707Z,6.10
2023-05-04T03:23:28.733Z,6.08
2023-05-04T03:24:28.733Z,6.10
2023-05-04T03:25:28.689Z,6.14
2023-05-04T03:26:28.646Z,6.16
2023-05-04T03:27:28.681Z,6.17
2023-05-04T03:28:28.634Z,6.19
2023-05-04T03:29:28.640Z,6.19
2023-05-04T03:30:28.635Z,6.11
2023-05-04T03:31:28.653Z,6.02
2023-05-04T03:32:28.604Z,5.99
2023-05-04T03:33:28.568Z,5.98
2023-05-04T03:34:28.550Z,5.93
2023-05-04T03:35:28.568Z,5.92
2023-05-04T03:36:28.515Z,5.90
2023-05-04T03:37:28.545Z,5.92
2023-05-04T03:38:28.506Z,5.93
2023-05-04T03:39:28.824Z,5.92
2023-05-04T03:40:28.603Z,5.88
2023-05-04T03:41:28.481Z,5.87
2023-05-04T03:42:28.479Z,5.90
2023-05-04T03:43:28.471Z,5.95
2023-05-04T03:44:28.435Z,5.96
2023-05-04T03:45:28.506Z,5.99
2023-05-04T03:46:28.442Z,6.02
2023-05-04T03:47:28.476Z,6.05
2023-05-04T03:48:28.425Z,6.11
2023-05-04T03:49:28.403Z,6.17
2023-05-04T03:50:28.374Z,6.20
2023-05-04T03:51:28.408Z,6.19
2023-05-04T03:52:28.387Z,6.19
2023-05-04T03:53:28.380Z,6.20
2023-05-04T03:54:28.331Z,6.16
2023-05-04T03:55:28.357Z,6.08
2023-05-04T03:56:28.313Z,6.08
2023-05-04T03:57:28.317Z,6.11
2023-05-04T03:58:28.320Z,6.13
2023-05-04T03:59:28.300Z,6.19
2023-05-04T04:00:28.257Z,6.24
2023-05-04T04:01:28.274Z,6.32
2023-05-04T04:02:28.382Z,6.36
2023-05-04T04:03:28.479Z,6.40
2023-05-04T04:04:28.353Z,6.43
2023-05-04T04:05:28.226Z,6.48
2023-05-04T04:06:28.198Z,6.50
2023-05-04T04:07:28.218Z,6.51
2023-05-04T04:08:28.179Z,6.53
2023-05-04T04:09:28.233Z,6.54
2023-05-04T04:10:28.160Z,6.55
2023-05-04T04:11:28.176Z,6.58
2023-05-04T04:12:28.157Z,6.60
2023-05-04T04:13:28.162Z,6.57
2023-05-04T04:14:28.128Z,6.58
2023-05-04T04:15:28.174Z,6.58
2023-05-04T04:16:28.141Z,6.60
2023-05-04T04:17:28.176Z,6.58
2023-05-04T04:18:28.076Z,6.60
2023-05-04T04:19:28.093Z,6.63
2023-05-04T04:20:28.095Z,6.63
2023-05-04T04:21:28.099Z,6.65
2023-05-04T04:22:28.030Z,6.68
2023-05-04T04:23:28.079Z,6.68
2023-05-04T04:24:28.044Z,6.71
2023-05-04T04:25:28.026Z,6.73
2023-05-04T04:26:27.991Z,6.76
2023-05-04T04:27:28.010Z,6.82
2023-05-04T04:28:28.019Z,6.90
2023-05-04T04:29:28.001Z,6.93
2023-05-04T04:30:27.956Z,6.96
2023-05-04T04:31:28.048Z,6.96
2023-05-04T04:32:27.982Z,6.96
2023-05-04T04:33:27.978Z,6.94
2023-05-04T04:34:27.923Z,6.90
2023-05-04T04:35:27.929Z,6.83
2023-05-04T04:36:27.908Z,6.82
2023-05-04T04:37:27.911Z,6.82
2023-05-04T04:38:27.889Z,6.81
2023-05-04T04:39:27.993Z,6.82
2023-05-04T04:40:27.855Z,6.82
2023-05-04T04:41:27.864Z,6.81
2023-05-04T04:42:30.322Z,6.81
2023-05-04T04:43:27.848Z,6.71
2023-05-04T04:44:27.910Z,6.63
2023-05-04T04:45:27.866Z,6.57
2023-05-04T04:46:35.488Z,6.48
2023-05-04T04:47:27.838Z,6.39
2023-05-04T04:48:28.898Z,6.33
2023-05-04T04:49:27.784Z,6.28
2023-05-04T04:50:27.760Z,6.32
2023-05-04T04:51:27.808Z,6.38
2023-05-04T04:52:27.720Z,6.38
2023-05-04T04:53:27.734Z,6.35
2023-05-04T04:54:27.709Z,6.35
2023-05-04T04:55:27.727Z,6.35
2023-05-04T04:56:27.677Z,6.39
2023-05-04T04:57:29.875Z,6.36
2023-05-04T04:58:49.471Z,6.35
2023-05-04T04:59:27.665Z,6.35
2023-05-04T05:00:27.643Z,6.42
2023-05-04T05:01:27.708Z,6.53
2023-05-04T05:02:27.684Z,6.60
2023-05-04T05:03:27.639Z,6.58
2023-05-04T05:04:27.649Z,6.60
2023-05-04T05:05:29.118Z,6.61
2023-05-04T05:06:27.591Z,6.61
2023-05-04T05:07:27.586Z,6.68
2023-05-04T05:08:27.587Z,6.72
2023-05-04T05:09:27.592Z,6.73
2023-05-04T05:10:27.525Z,6.79
2023-05-04T05:11:27.590Z,6.78
2023-05-04T05:12:27.541Z,6.76
2023-05-04T05:13:27.558Z,6.82
2023-05-04T05:14:27.505Z,6.89
2023-05-04T05:15:27.509Z,6.97
2023-05-04T05:16:27.543Z,7.01
2023-05-04T05:17:27.508Z,7.05
2023-05-04T05:18:27.460Z,7.11
2023-05-04T05:19:27.499Z,6.96
2023-05-04T05:20:36.971Z,6.75
2023-05-04T05:21:27.453Z,6.57
2023-05-04T05:22:27.416Z,6.60
2023-05-04T05:23:27.423Z,6.65
2023-05-04T05:24:27.407Z,6.76
2023-05-04T05:25:27.406Z,6.87
2023-05-04T05:26:27.393Z,6.93
2023-05-04T05:27:27.398Z,6.97
2023-05-04T05:28:27.383Z,6.90
2023-05-04T05:29:27.370Z,6.91
2023-05-04T05:30:27.513Z,6.89
2023-05-04T05:31:27.383Z,6.83
2023-05-04T05:32:27.366Z,6.81
2023-05-04T05:33:27.308Z,6.89
2023-05-04T05:34:27.295Z,6.97
2023-05-04T05:35:27.292Z,7.08
2023-05-04T05:36:27.269Z,7.18
2023-05-04T05:37:27.293Z,7.19
2023-05-04T05:38:27.240Z,7.21
2023-05-04T05:39:27.257Z,7.23
2023-05-04T05:40:27.226Z,7.30
2023-05-04T05:41:27.236Z,7.27
2023-05-04T05:42:27.228Z,7.15
2023-05-04T05:43:27.223Z,7.05
2023-05-04T05:44:27.171Z,7.09
2023-05-04T05:45:27.192Z,7.18
2023-05-04T05:46:27.221Z,7.27
2023-05-04T05:47:27.227Z,7.33
2023-05-04T05:48:27.144Z,7.37
2023-05-04T05:49:27.188Z,7.45
2023-05-04T05:50:27.314Z,7.58
2023-05-04T05:51:27.121Z,7.62
2023-05-04T05:52:27.129Z,7.63
2023-05-04T05:53:27.104Z,7.74
2023-05-04T05:54:27.076Z,7.85
2023-05-04T05:55:27.092Z,7.95
2023-05-04T05:56:27.051Z,8.02
2023-05-04T05:57:27.094Z,8.06
2023-05-04T05:58:27.037Z,8.12
2023-05-04T05:59:27.048Z,8.13
2023-05-04T06:00:27.011Z,8.12
2023-05-04T06:01:27.025Z,8.20
2023-05-04T06:02:27.069Z,8.22
2023-05-04T06:03:27.208Z,8.24
2023-05-04T06:04:27.010Z,8.25
2023-05-04T06:05:26.995Z,8.34
2023-05-04T06:06:27.008Z,8.45
2023-05-04T06:07:26.968Z,8.52
2023-05-04T06:08:26.962Z,8.55
2023-05-04T06:09:26.961Z,8.47
2023-05-04T06:10:26.915Z,8.43
2023-05-04T06:11:26.928Z,8.46
2023-05-04T06:12:26.885Z,8.49
2023-05-04T06:13:27.221Z,8.50
2023-05-04T06:14:26.861Z,8.54
2023-05-04T06:15:26.898Z,8.60
2023-05-04T06:16:26.911Z,8.63
2023-05-04T06:17:26.896Z,8.65
2023-05-04T06:18:26.826Z,8.61
2023-05-04T06:19:27.187Z,8.57
2023-05-04T06:20:26.806Z,8.57
2023-05-04T06:21:26.831Z,8.60
2023-05-04T06:22:26.771Z,8.63
2023-05-04T06:23:26.790Z,8.67
2023-05-04T06:24:26.767Z,8.65
2023-05-04T06:25:26.776Z,8.71
2023-05-04T06:26:27.014Z,8.82
2023-05-04T06:27:26.973Z,8.91
2023-05-04T06:28:26.740Z,9.00
2023-05-04T06:29:26.743Z,9.08
2023-05-04T06:30:26.688Z,9.16
2023-05-04T06:31:26.739Z,9.24
2023-05-04T06:32:27.278Z,9.23
2023-05-04T06:33:26.680Z,9.22
2023-05-04T06:34:26.655Z,9.23
2023-05-04T06:35:26.682Z,9.30
2023-05-04T06:36:26.680Z,9.35
2023-05-04T06:37:26.647Z,9.40
2023-05-04T06:38:26.653Z,9.42
2023-05-04T06:39:26.663Z,9.44
2023-05-04T06:40:26.595Z,9.53
2023-05-04T06:41:26.606Z,9.60
2023-05-04T06:42:26.582Z,9.70
2023-05-04T06:43:26.576Z,9.74
2023-05-04T06:44:26.600Z,9.68
2023-05-04T06:45:26.630Z,9.60
2023-05-04T06:46:26.524Z,9.68
2023-05-04T06:47:26.597Z,9.71
2023-05-04T06:48:26.547Z,9.74
2023-05-04T06:49:26.524Z,9.71
2023-05-04T06:50:26.568Z,9.71
2023-05-04T06:51:26.467Z,9.75
2023-05-04T06:52:26.933Z,9.86
2023-05-04T06:53:26.451Z,9.96
2023-05-04T06:54:26.459Z,10.06
2023-05-04T06:55:26.468Z,10.10
2023-05-04T06:56:26.462Z,10.22
2023-05-04T06:57:26.407Z,10.26
2023-05-04T06:58:26.432Z,10.29
2023-05-04T06:59:26.384Z,10.28
2023-05-04T07:00:26.405Z,10.32
2023-05-04T07:01:26.440Z,10.28
2023-05-04T07:02:26.420Z,10.24
2023-05-04T07:03:40.900Z,10.28
2023-05-04T07:04:26.388Z,10.34
2023-05-04T07:05:26.332Z,10.39
2023-05-04T07:06:26.358Z,10.46
2023-05-04T07:07:26.304Z,10.39
2023-05-04T07:08:26.328Z,10.32
2023-05-04T07:09:26.313Z,10.28
2023-05-04T07:10:26.329Z,10.24
2023-05-04T07:11:26.266Z,10.29
2023-05-04T07:12:26.289Z,10.38
2023-05-04T07:13:26.264Z,10.43
2023-05-04T07:14:26.247Z,10.52
2023-05-04T07:15:26.214Z,10.60
2023-05-04T07:16:26.326Z,10.69
2023-05-04T07:17:31.351Z,10.75
2023-05-04T07:18:26.250Z,10.86
2023-05-04T07:19:26.188Z,10.90
2023-05-04T07:20:26.492Z,10.99
2023-05-04T07:21:28.820Z,11.02
2023-05-04T07:22:26.233Z,11.03
2023-05-04T07:23:26.163Z,11.08
2023-05-04T07:24:26.189Z,11.16
2023-05-04T07:25:26.167Z,11.19
2023-05-04T07:26:26.178Z,11.19
2023-05-04T07:27:26.140Z,11.24
2023-05-04T07:28:26.137Z,11.30
2023-05-04T07:29:26.064Z,11.38
2023-05-04T07:30:26.127Z,11.44
2023-05-04T07:31:28.106Z,11.49
2023-05-04T07:32:26.142Z,11.57
2023-05-04T07:33:26.051Z,11.60
2023-05-04T07:34:37.838Z,11.67
2023-05-04T07:35:26.112Z,11.75
2023-05-04T07:36:26.038Z,11.79
2023-05-04T07:37:26.042Z,11.85
2023-05-04T07:38:26.059Z,11.94
2023-05-04T07:39:26.179Z,11.98
2023-05-04T07:40:26.016Z,11.90
2023-05-04T07:41:26.090Z,11.94
2023-05-04T07:42:26.002Z,11.97
2023-05-04T07:43:25.966Z,11.96
2023-05-04T07:44:26.105Z,11.97
2023-05-04T07:45:25.954Z,12.03
2023-05-04T07:46:25.943Z,12.08
2023-05-04T07:47:25.904Z,12.19
2023-05-04T07:48:26.542Z,12.25
2023-05-04T07:49:26.016Z,12.31
2023-05-04T07:50:25.909Z,12.40
2023-05-04T07:51:25.928Z,12.38
2023-05-04T07:52:25.882Z,12.36
2023-05-04T07:53:25.810Z,12.37
2023-05-04T07:54:25.916Z,12.31
2023-05-04T07:55:25.808Z,12.29
2023-05-04T07:56:25.808Z,12.29
2023-05-04T07:57:25.799Z,12.31
2023-05-04T07:58:25.800Z,12.23
2023-05-04T07:59:25.792Z,12.07
2023-05-04T08:00:25.785Z,12.05
2023-05-04T08:01:25.739Z,12.03
2023-05-04T08:02:25.894Z,12.07
2023-05-04T08:03:25.867Z,12.18
2023-05-04T08:04:25.748Z,12.25
2023-05-04T08:05:25.701Z,12.34
2023-05-04T08:06:26.150Z,12.40
2023-05-04T08:07:25.708Z,12.44
2023-05-04T08:08:25.989Z,12.52
2023-05-04T08:09:25.684Z,12.58
2023-05-04T08:10:25.696Z,12.62
2023-05-04T08:11:25.624Z,12.67
2023-05-04T08:12:25.643Z,12.62
2023-05-04T08:13:25.602Z,12.66
2023-05-04T08:14:25.615Z,12.55
2023-05-04T08:15:25.619Z,12.55
2023-05-04T08:16:25.668Z,12.55
2023-05-04T08:17:25.579Z,12.59
2023-05-04T08:18:25.567Z,12.61
2023-05-04T08:19:25.560Z,12.66
2023-05-04T08:20:25.646Z,12.63
2023-05-04T08:21:25.534Z,12.61
2023-05-04T08:22:25.535Z,12.66
2023-05-04T08:23:25.495Z,12.76
2023-05-04T08:24:25.538Z,12.81
2023-05-04T08:25:25.508Z,12.88
2023-05-04T08:26:25.502Z,12.94
2023-05-04T08:27:25.474Z,13.03
2023-05-04T08:28:25.482Z,12.98
2023-05-04T08:29:25.442Z,12.99
2023-05-04T08:30:25.453Z,12.92
2023-05-04T08:31:25.449Z,12.92
2023-05-04T08:32:25.505Z,12.99
2023-05-04T08:33:25.429Z,13.01
2023-05-04T08:34:25.425Z,12.99
2023-05-04T08:35:25.396Z,13.06
2023-05-04T08:36:25.386Z,13.14
2023-05-04T08:37:25.352Z,13.22
2023-05-04T08:38:25.453Z,13.38
2023-05-04T08:39:25.359Z,13.44
2023-05-04T08:40:25.351Z,13.54
2023-05-04T08:41:25.310Z,13.68
2023-05-04T08:42:25.359Z,13.69
2023-05-04T08:43:25.314Z,13.80
2023-05-04T08:44:25.334Z,13.88
2023-05-04T08:45:25.792Z,13.94
2023-05-04T08:46:25.324Z,13.86
2023-05-04T08:47:25.780Z,13.57
2023-05-04T08:48:25.291Z,13.43
2023-05-04T08:49:25.250Z,13.46
2023-05-04T08:50:25.294Z,13.54
2023-05-04T08:51:25.959Z,13.69
2023-05-04T08:52:25.285Z,13.84
2023-05-04T08:53:25.180Z,14.04
2023-05-04T08:54:25.329Z,14.16
2023-05-04T08:55:25.180Z,14.23
2023-05-04T08:56:25.209Z,14.38
2023-05-04T08:57:25.134Z,14.56
2023-05-04T08:58:25.142Z,14.66
2023-05-04T08:59:25.148Z,14.80
2023-05-04T09:00:25.171Z,14.83
2023-05-04T09:01:25.218Z,14.90
2023-05-04T09:02:25.223Z,14.98
2023-05-04T09:03:25.223Z,14.93
2023-05-04T09:04:27.209Z,14.95
2023-05-04T09:05:25.055Z,15.00
2023-05-04T09:06:25.098Z,15.04
2023-05-04T09:07:25.112Z,15.05
2023-05-04T09:08:25.078Z,15.07
2023-05-04T09:09:25.021Z,15.05
2023-05-04T09:10:26.898Z,15.07
2023-05-04T09:11:24.996Z,15.04
2023-05-04T09:12:25.046Z,15.05
2023-05-04T09:13:25.013Z,15.11
2023-05-04T09:14:25.027Z,15.25
2023-05-04T09:15:24.951Z,15.35
2023-05-04T09:16:24.997Z,15.31
2023-05-04T09:17:25.001Z,15.33
2023-05-04T09:18:24.953Z,15.15
2023-05-04T09:19:24.932Z,15.11
2023-05-04T09:20:24.905Z,15.20
2023-05-04T09:21:24.888Z,15.38
2023-05-04T09:22:25.462Z,15.53
2023-05-04T09:23:24.915Z,15.58
2023-05-04T09:24:24.904Z,15.66
2023-05-04T09:25:24.883Z,15.53
2023-05-04T09:26:24.947Z,15.27
2023-05-04T09:27:24.917Z,15.13
2023-05-04T09:28:25.772Z,15.15
2023-05-04T09:29:24.805Z,15.31
2023-05-04T09:30:24.816Z,15.49
2023-05-04T09:31:24.827Z,15.64
2023-05-04T09:32:24.813Z,15.77
2023-05-04T09:33:24.778Z,15.73
2023-05-04T09:34:24.798Z,15.67
2023-05-04T09:35:32.483Z,15.70
2023-05-04T09:36:24.751Z,15.86
2023-05-04T09:37:24.738Z,16.01
2023-05-04T09:38:24.734Z,16.16
2023-05-04T09:39:24.705Z,16.29
2023-05-04T09:40:24.725Z,16.40
2023-05-04T09:41:24.696Z,16.51
2023-05-04T09:42:24.767Z,16.63
2023-05-04T09:43:24.662Z,16.70
2023-05-04T09:44:24.950Z,16.69
2023-05-04T09:45:24.632Z,16.75
2023-05-04T09:46:24.661Z,16.87
2023-05-04T09:47:24.718Z,16.91
2023-05-04T09:48:24.619Z,16.98
2023-05-04T09:49:24.596Z,16.99
2023-05-04T09:50:24.604Z,17.05
2023-05-04T09:51:24.566Z,17.14
2023-05-04T09:52:24.584Z,17.15
2023-05-04T09:53:24.527Z,17.12
2023-05-04T09:54:24.552Z,17.12
2023-05-04T09:55:24.625Z,17.21
2023-05-04T09:56:24.597Z,17.21
2023-05-04T09:57:24.497Z,17.30
2023-05-04T09:58:24.506Z,17.32
2023-05-04T09:59:24.466Z,17.30
2023-05-04T10:00:24.559Z,17.15
2023-05-04T10:01:24.482Z,16.84
2023-05-04T10:02:24.592Z,16.82
2023-05-04T10:03:24.473Z,16.95
2023-05-04T10:04:24.495Z,16.99
2023-05-04T10:05:24.418Z,16.99
2023-05-04T10:06:24.412Z,16.82
2023-05-04T10:07:24.426Z,16.60
2023-05-04T10:08:24.420Z,16.54
2023-05-04T10:09:24.375Z,16.67
2023-05-04T10:10:24.383Z,16.82
2023-05-04T10:11:24.474Z,16.99
2023-05-04T10:12:24.409Z,17.10
2023-05-04T10:13:24.338Z,17.14
2023-05-04T10:14:24.354Z,17.17
2023-05-04T10:15:24.335Z,17.22
2023-05-04T10:16:24.426Z,17.25
2023-05-04T10:17:24.365Z,17.27
2023-05-04T10:18:24.288Z,17.25
2023-05-04T10:19:24.260Z,17.32
2023-05-04T10:20:24.283Z,17.38
2023-05-04T10:21:30.541Z,17.40
2023-05-04T10:22:24.257Z,17.42
2023-05-04T10:23:24.260Z,17.38
2023-05-04T10:24:24.233Z,17.42
2023-05-04T10:25:24.195Z,17.43
2023-05-04T10:26:24.273Z,17.49
2023-05-04T10:27:24.203Z,17.62
2023-05-04T10:28:24.194Z,17.70
2023-05-04T10:29:24.249Z,17.68
2023-05-04T10:30:24.188Z,17.54
2023-05-04T10:31:24.194Z,17.53
2023-05-04T10:32:24.181Z,17.35
2023-05-04T10:33:24.267Z,17.39
2023-05-04T10:34:24.190Z,17.42
2023-05-04T10:35:24.186Z,17.33
2023-05-04T10:36:24.178Z,17.40
2023-05-04T10:37:24.109Z,17.54
2023-05-04T10:38:24.180Z,17.66
2023-05-04T10:39:24.067Z,17.73
2023-05-04T10:40:24.162Z,17.62
2023-05-04T10:41:24.032Z,17.63
2023-05-04T10:42:24.105Z,17.45
2023-05-04T10:43:24.446Z,17.36
2023-05-04T10:44:24.019Z,17.30
2023-05-04T10:45:24.003Z,17.38
2023-05-04T10:46:24.014Z,17.47
2023-05-04T10:47:23.962Z,17.65
2023-05-04T10:48:24.332Z,17.70
2023-05-04T10:49:23.981Z,17.77
2023-05-04T10:50:23.984Z,17.86
2023-05-04T10:51:25.283Z,18.01
2023-05-04T10:52:23.934Z,18.02
2023-05-04T10:53:23.918Z,18.01
2023-05-04T10:54:23.966Z,18.01
2023-05-04T10:55:23.876Z,18.05
2023-05-04T10:56:23.877Z,18.10
2023-05-04T10:57:23.853Z,18.14
2023-05-04T10:58:23.897Z,18.21
2023-05-04T10:59:23.868Z,18.35
2023-05-04T11:00:23.851Z,18.49
2023-05-04T11:01:23.936Z,18.65
2023-05-04T11:02:23.967Z,18.83
2023-05-04T11:03:23.901Z,18.91
2023-05-04T11:04:23.795Z,19.05
2023-05-04T11:05:23.791Z,19.07
2023-05-04T11:06:24.341Z,19.10
2023-05-04T11:07:23.804Z,18.90
2023-05-04T11:08:23.756Z,18.74
2023-05-04T11:09:23.822Z,18.49
2023-05-04T11:10:23.721Z,18.39
2023-05-04T11:11:23.744Z,18.56
2023-05-04T11:12:23.763Z,18.65
2023-05-04T11:13:23.852Z,18.62
2023-05-04T11:14:23.671Z,18.60
2023-05-04T11:15:23.685Z,18.69
2023-05-04T11:16:23.692Z,18.93
2023-05-04T11:17:28.082Z,19.12
2023-05-04T11:18:30.051Z,19.23
2023-05-04T11:19:23.660Z,19.17
2023-05-04T11:20:23.598Z,19.13
2023-05-04T11:21:23.641Z,18.99
2023-05-04T11:22:23.750Z,18.91
2023-05-04T11:23:23.608Z,18.62
2023-05-04T11:24:23.560Z,18.59
2023-05-04T11:25:23.588Z,18.72
2023-05-04T11:26:23.582Z,18.94
2023-05-04T11:27:23.575Z,19.13
2023-05-04T11:28:23.580Z,19.23
2023-05-04T11:29:23.555Z,19.15
2023-05-04T11:30:23.508Z,19.07
2023-05-04T11:31:23.568Z,18.91
2023-05-04T11:32:23.537Z,19.02
2023-05-04T11:33:23.513Z,19.02
2023-05-04T11:34:23.484Z,19.06
2023-05-04T11:35:23.468Z,19.10
2023-05-04T11:36:23.438Z,18.90
2023-05-04T11:37:23.488Z,18.99
2023-05-04T11:38:29.943Z,19.01
2023-05-04T11:39:23.419Z,19.06
2023-05-04T11:40:23.382Z,19.31
2023-05-04T11:41:23.440Z,19.58
2023-05-04T11:42:23.368Z,19.83
2023-05-04T11:43:23.394Z,19.67
2023-05-04T11:44:23.385Z,19.86
2023-05-04T11:45:23.370Z,20.13
2023-05-04T11:47:12.931Z,20.13
2023-05-04T11:47:59.005Z,20.15
2023-05-04T11:48:23.328Z,20.19
2023-05-04T11:49:23.336Z,20.33
2023-05-04T11:50:23.284Z,20.50
2023-05-04T11:51:23.321Z,20.41
2023-05-04T11:52:23.272Z,20.16
2023-05-04T11:53:23.274Z,20.01
2023-05-04T11:54:23.287Z,20.23
2023-05-04T11:55:23.259Z,20.54
2023-05-04T11:56:23.258Z,20.73
2023-05-04T11:57:23.239Z,20.97
2023-05-04T11:58:23.209Z,21.06
2023-05-04T11:59:23.219Z,21.16
2023-05-04T12:00:23.180Z,21.13
2023-05-04T12:01:23.222Z,21.05
2023-05-04T12:02:23.193Z,20.94
2023-05-04T12:03:24.544Z,20.81
2023-05-04T12:05:32.863Z,20.88
2023-05-04T12:06:33.902Z,21.03
2023-05-04T12:07:33.805Z,21.05
2023-05-04T12:12:02.426Z,20.79
2023-05-04T12:14:12.856Z,20.66
2023-05-04T12:17:02.131Z,20.10
2023-05-04T12:19:18.593Z,20.44
2023-05-04T12:20:19.599Z,20.46
2023-05-04T12:21:19.669Z,20.37
2023-05-04T12:23:35.956Z,20.22
2023-05-04T12:24:30.044Z,20.16
2023-05-04T12:25:30.093Z,20.25
2023-05-04T12:26:30.029Z,20.41
2023-05-04T12:27:30.074Z,20.50
2023-05-04T12:28:30.031Z,20.56
2023-05-04T12:29:30.037Z,20.72
2023-05-04T12:30:30.040Z,20.69
2023-05-04T12:31:30.034Z,21.03
2023-05-04T12:32:30.021Z,21.27
2023-05-04T12:33:29.987Z,21.43
2023-05-04T12:34:29.948Z,21.43
2023-05-04T12:35:29.956Z,21.37
2023-05-04T12:36:29.920Z,21.31
2023-05-04T12:37:29.967Z,21.31
2023-05-04T12:38:29.919Z,21.38
2023-05-04T12:39:29.921Z,21.15
2023-05-04T12:40:29.967Z,21.09
2023-05-04T12:41:29.894Z,21.06
2023-05-04T12:42:29.872Z,21.06
2023-05-04T12:43:29.876Z,21.12
2023-05-04T12:44:29.868Z,21.19
2023-05-04T12:45:29.865Z,21.30
2023-05-04T12:46:29.960Z,21.42
2023-05-04T12:47:29.847Z,21.36
2023-05-04T12:48:29.807Z,21.49
2023-05-04T12:49:29.847Z,21.12
2023-05-04T12:50:29.791Z,20.88
2023-05-04T12:51:29.789Z,20.37
2023-05-04T12:52:29.805Z,20.07
2023-05-04T12:53:29.818Z,20.16
2023-05-04T12:54:29.742Z,20.35
2023-05-04T12:55:29.754Z,20.53
2023-05-04T12:56:29.747Z,20.72
2023-05-04T12:57:29.768Z,20.83
2023-05-04T12:58:29.698Z,20.54
2023-05-04T12:59:29.734Z,20.22
2023-05-04T13:00:29.683Z,20.17
2023-05-04T13:01:29.777Z,20.27
2023-05-04T13:02:29.744Z,20.48
2023-05-04T13:03:29.818Z,20.63
2023-05-04T13:04:29.748Z,20.88
2023-05-04T13:05:29.668Z,21.15
2023-05-04T13:06:29.663Z,21.38
2023-05-04T13:07:29.644Z,21.51
2023-05-04T13:08:29.630Z,21.42
2023-05-04T13:09:29.611Z,21.36
2023-05-04T13:10:29.588Z,21.26
2023-05-04T13:11:30.122Z,21.12
2023-05-04T13:12:29.701Z,21.01
2023-05-04T13:13:29.817Z,21.09
2023-05-04T13:14:29.930Z,21.31
2023-05-04T13:15:29.550Z,21.26
2023-05-04T13:16:29.640Z,21.18